»·PEaware :: AAL491 KDEN-KPHX

AAL491 :: KDEN-KPHX

FLIGHT INFORMATION

Flight Status: Arrived
Operator:
American Airlines
More flights by this operator :: More flights under this callsign
Pilot: Jim M. (18055)
Aircraft: Unknown
(B748)
More flights by this aircraft type
Origin: KDEN Denver Intl
United States
Destination: KPHX Phoenix Sky Harbor Intl
United States
More flights between these airports :: More routes between these airports
Route: SOLAR4 DAAYE GUP EAGUL6
File this flight plan on PilotEdge
Remarks:
Altitude:
(Current/Filed)
38,000ft
Speed:
(Current/Filed)
450kts
Departed: 06-Apr-19 11:11 AM
Arrived: 06-Apr-19 12:35 PM
Distance/Time
Traveled:
522nm/1:23
Distance/Time
To Go:
Arrived

Flight Plot

Page will automatically refresh every two minutes.

Flight plan parsing failed; only flown route is shown


Map Options




Map Legend


Flown Route
Filed Route
Departure Airport
Arrival Airport
Navaid (VOR, NDB)
Fix

Horizontal Profiles

Position Reports

Time Latitude Longitude Heading Altitude Ground
Speed
06-Apr-19 10:35 39.854513 -104.674987 186 5444ft 0kts
06-Apr-19 10:36 39.854513 -104.674987 186 5444ft 0kts
06-Apr-19 10:37 39.854513 -104.674987 186 5444ft 0kts
06-Apr-19 10:38 39.854513 -104.674987 186 5444ft 0kts
06-Apr-19 10:39 39.854513 -104.674987 186 5444ft 0kts
06-Apr-19 10:40 39.854513 -104.674987 186 5444ft 0kts
06-Apr-19 10:41 39.854513 -104.674987 186 5444ft 0kts
06-Apr-19 10:42 39.854513 -104.674987 186 5444ft 0kts
06-Apr-19 10:43 39.854513 -104.674987 186 5444ft 0kts
06-Apr-19 10:44 39.854513 -104.674987 186 5444ft 0kts
06-Apr-19 10:45 39.854513 -104.674987 186 5444ft 0kts
06-Apr-19 10:46 39.854513 -104.674987 186 5444ft 0kts
06-Apr-19 10:47 39.854513 -104.674987 186 5444ft 0kts
06-Apr-19 10:48 39.854513 -104.674987 186 5444ft 0kts
06-Apr-19 10:49 39.854513 -104.674987 186 5444ft 0kts
06-Apr-19 10:50 39.854513 -104.674987 186 5444ft 0kts
06-Apr-19 10:51 39.854882 -104.674990 163 5444ft 2kts
06-Apr-19 10:52 39.855256 -104.675446 91 5444ft 2kts
06-Apr-19 10:53 39.855260 -104.675774 90 5444ft 0kts
06-Apr-19 10:54 39.855260 -104.675774 90 5444ft 0kts
06-Apr-19 10:55 39.855260 -104.675774 90 5444ft 0kts
06-Apr-19 10:56 39.855260 -104.675774 90 5444ft 0kts
06-Apr-19 10:57 39.855260 -104.675774 90 5444ft 0kts
06-Apr-19 10:58 39.855260 -104.675774 90 5444ft 0kts
06-Apr-19 10:59 39.855260 -104.675774 90 5444ft 0kts
06-Apr-19 11:00 39.855260 -104.675774 90 5444ft 0kts
06-Apr-19 11:01 39.855260 -104.675774 90 5444ft 0kts
06-Apr-19 11:02 39.855240 -104.673361 89 5444ft 8kts
06-Apr-19 11:03 39.855811 -104.669794 68 5444ft 12kts
06-Apr-19 11:04 39.855911 -104.666353 90 5444ft 0kts
06-Apr-19 11:05 39.855876 -104.664661 91 5444ft 9kts
06-Apr-19 11:06 39.857749 -104.663503 1 5444ft 12kts
06-Apr-19 11:07 39.860618 -104.663498 0 5444ft 5kts
06-Apr-19 11:08 39.861098 -104.662116 87 5444ft 0kts
06-Apr-19 11:09 39.861001 -104.660481 133 5444ft 13kts
06-Apr-19 11:10 39.840659 -104.660287 179 5453ft 186kts
06-Apr-19 11:11 39.786321 -104.667742 195 7868ft 220kts
06-Apr-19 11:12 39.717181 -104.693599 189 9406ft 278kts
06-Apr-19 11:13 39.633919 -104.697909 182 11337ft 345kts
06-Apr-19 11:14 39.533232 -104.706190 183 14586ft 372kts
06-Apr-19 11:15 39.427693 -104.716901 195 17954ft 386kts
06-Apr-19 11:16 39.326365 -104.769691 213 20929ft 400kts
06-Apr-19 11:17 39.250444 -104.878546 244 23069ft 426kts
06-Apr-19 11:18 39.177630 -105.004840 234 25524ft 448kts
06-Apr-19 11:19 39.078112 -105.104704 209 27690ft 470kts
06-Apr-19 11:20 38.958811 -105.179862 208 29546ft 483kts
06-Apr-19 11:21 38.837392 -105.257856 208 31075ft 492kts
06-Apr-19 11:22 38.714743 -105.335924 208 32810ft 490kts
06-Apr-19 11:23 38.592985 -105.413187 208 34343ft 486kts
06-Apr-19 11:24 38.472684 -105.489159 208 35736ft 481kts
06-Apr-19 11:25 38.353198 -105.564382 208 36961ft 476kts
06-Apr-19 11:26 38.235341 -105.639004 209 38028ft 472kts
06-Apr-19 11:27 38.117200 -105.712882 209 38053ft 472kts
06-Apr-19 11:28 38.002724 -105.793034 222 38055ft 468kts
06-Apr-19 11:29 37.909683 -105.907274 227 38074ft 464kts
06-Apr-19 11:30 37.818733 -106.023639 227 38084ft 464kts
06-Apr-19 11:31 37.727972 -106.139299 227 38102ft 464kts
06-Apr-19 11:32 37.636652 -106.255310 227 38135ft 464kts
06-Apr-19 11:33 37.545652 -106.370093 227 38157ft 463kts
06-Apr-19 11:34 37.454334 -106.484791 227 38207ft 462kts
06-Apr-19 11:35 37.363339 -106.598662 227 38230ft 462kts
06-Apr-19 11:36 37.271990 -106.712555 227 38225ft 462kts
06-Apr-19 11:37 37.180692 -106.825975 227 38220ft 462kts
06-Apr-19 11:38 37.089333 -106.939063 227 38156ft 462kts
06-Apr-19 11:40 36.997911 -107.051827 226 38153ft 461kts
06-Apr-19 11:41 36.906199 -107.164540 226 38106ft 461kts
06-Apr-19 11:42 36.814622 -107.276691 226 38100ft 461kts
06-Apr-19 11:43 36.722774 -107.388777 226 38103ft 461kts
06-Apr-19 11:44 36.630938 -107.500454 226 38104ft 461kts
06-Apr-19 11:45 36.538982 -107.611880 226 38103ft 461kts
06-Apr-19 11:46 36.446881 -107.723096 226 38087ft 462kts
06-Apr-19 11:47 36.354549 -107.834198 226 38083ft 463kts
06-Apr-19 11:48 36.261997 -107.945181 226 38092ft 463kts
06-Apr-19 11:49 36.169112 -108.056177 226 38098ft 463kts
06-Apr-19 11:50 36.076462 -108.166510 226 38105ft 463kts
06-Apr-19 11:51 35.983485 -108.276851 226 38115ft 463kts
06-Apr-19 11:52 35.890273 -108.387093 226 38123ft 464kts
06-Apr-19 11:53 35.797003 -108.497029 226 38129ft 465kts
06-Apr-19 11:54 35.703510 -108.606943 226 38135ft 466kts
06-Apr-19 11:55 35.609451 -108.717290 226 38139ft 468kts
06-Apr-19 11:56 35.514640 -108.827661 226 38139ft 470kts
06-Apr-19 11:57 35.422350 -108.940932 229 38140ft 469kts
06-Apr-19 11:58 35.332670 -109.057655 229 38139ft 471kts
06-Apr-19 11:59 35.242259 -109.174040 229 38137ft 472kts
06-Apr-19 11:59 35.167331 -109.271033 229 38134ft 473kts
06-Apr-19 12:00 35.076346 -109.387755 229 38129ft 473kts
06-Apr-19 12:02 34.970450 -109.523358 229 38131ft 474kts
06-Apr-19 12:02 34.894201 -109.620164 229 38131ft 475kts
06-Apr-19 12:03 34.802517 -109.736740 230 38133ft 476kts
06-Apr-19 12:04 34.713170 -109.854746 239 36726ft 471kts
06-Apr-19 12:06 34.646116 -110.020992 248 34032ft 471kts
06-Apr-19 12:06 34.601405 -110.142814 248 32108ft 469kts
06-Apr-19 12:07 34.548147 -110.284515 247 30102ft 456kts
06-Apr-19 12:08 34.497836 -110.417647 247 29325ft 412kts
06-Apr-19 12:09 34.451056 -110.542019 247 27699ft 399kts
06-Apr-19 12:10 34.405054 -110.662641 247 26016ft 390kts
06-Apr-19 12:11 34.359535 -110.780363 242 24351ft 382kts
06-Apr-19 12:12 34.302626 -110.888480 237 24144ft 384kts
06-Apr-19 12:13 34.246811 -110.996447 234 22629ft 378kts
06-Apr-19 12:14 34.159189 -111.064768 210 21101ft 367kts
06-Apr-19 12:15 34.084057 -111.142090 231 19588ft 349kts
06-Apr-19 12:16 34.019272 -111.227257 229 18065ft 341kts
06-Apr-19 12:17 33.954711 -111.309802 229 16904ft 336kts
06-Apr-19 12:18 33.891264 -111.390676 229 15822ft 323kts
06-Apr-19 12:19 33.842274 -111.476920 241 14802ft 309kts
06-Apr-19 12:20 33.796754 -111.563957 240 13788ft 304kts
06-Apr-19 12:21 33.751499 -111.649097 239 12790ft 299kts
06-Apr-19 12:22 33.707854 -111.730766 239 11837ft 281kts
06-Apr-19 12:23 33.668049 -111.805887 239 10955ft 247kts
06-Apr-19 12:24 33.631337 -111.874884 238 10174ft 244kts
06-Apr-19 12:25 33.595200 -111.942990 237 9142ft 240kts
06-Apr-19 12:26 33.559456 -112.009932 237 8053ft 236kts
06-Apr-19 12:27 33.527057 -112.077332 255 7079ft 231kts
06-Apr-19 12:28 33.526439 -112.154333 271 6729ft 228kts
06-Apr-19 12:29 33.512287 -112.223093 209 4713ft 221kts
06-Apr-19 12:30 33.466746 -112.200707 126 3566ft 185kts
06-Apr-19 12:31 33.440444 -112.148809 106 3134ft 182kts
06-Apr-19 12:32 33.440931 -112.093032 89 2147ft 162kts
06-Apr-19 12:33 33.441069 -112.039238 90 1385ft 160kts
06-Apr-19 12:34 33.440857 -112.004294 89 1148ft 38kts
06-Apr-19 12:35 33.438992 -111.999186 89 1148ft 7kts
06-Apr-19 12:36 33.439004 -111.995558 90 1148ft 4kts
06-Apr-19 12:37 33.438904 -111.993175 139 1148ft 6kts
06-Apr-19 12:38 33.438181 -111.993701 224 1148ft 1kts
06-Apr-19 12:39 33.438125 -111.993768 225 1148ft 0kts
06-Apr-19 12:40 33.438125 -111.993768 225 1148ft 0kts

Navigation Log

Ident Type
Flight plan parsing failed, navigation log unavailable